Time;durP1;ratioP1;P1;durP2;ratioP2;P2;SDS_P1;SDS_P2;PMS_P1;PMS_P2;Temp;Humidity;BMP_temperature;BMP_pressure;BME280_temperature;BME280_humidity;BME280_pressure;Samples;Min_cycle;Max_cycle;Signal;HPM_P1;HPM_P2
2021/08/01 00:00:50;;;;;;;8.00;4.77;;;15.50;99.90;;;;;;5030491;28;20199;-56
2021/08/01 00:03:16;;;;;;;14.40;4.80;;;15.50;99.90;;;;;;5027805;28;20176;-58
2021/08/01 00:05:43;;;;;;;10.00;4.60;;;15.40;99.90;;;;;;5027464;28;20203;-56
2021/08/01 00:08:08;;;;;;;8.50;4.30;;;15.40;99.90;;;;;;5026607;28;20191;-55
2021/08/01 00:10:34;;;;;;;7.07;4.40;;;15.30;99.90;;;;;;5027069;28;20454;-57
2021/08/01 00:13:00;;;;;;;8.83;4.63;;;15.30;99.90;;;;;;5026596;28;20706;-57
2021/08/01 00:15:25;;;;;;;9.70;4.60;;;15.30;99.90;;;;;;5018830;28;20176;-56
2021/08/01 00:17:52;;;;;;;7.00;4.00;;;15.30;99.90;;;;;;5023585;28;20176;-56
2021/08/01 00:20:17;;;;;;;5.10;4.20;;;15.20;99.90;;;;;;5025014;28;20180;-57
2021/08/01 00:22:43;;;;;;;5.93;4.17;;;15.30;99.90;;;;;;5025274;28;20474;-55
2021/08/01 00:25:09;;;;;;;6.27;4.40;;;15.30;99.90;;;;;;5027387;28;20188;-57
2021/08/01 00:27:35;;;;;;;8.07;4.10;;;15.20;99.90;;;;;;5027864;28;20195;-57
2021/08/01 00:30:06;;;;;;;9.57;5.27;;;15.20;99.90;;;;;;5027073;28;20435;-57
2021/08/01 00:32:32;;;;;;;6.10;4.20;;;15.20;99.90;;;;;;5024139;28;20192;-57
2021/08/01 00:34:57;;;;;;;10.20;4.60;;;15.20;99.90;;;;;;5027023;28;20428;-55
2021/08/01 00:37:23;;;;;;;7.20;4.00;;;15.20;99.90;;;;;;5023083;28;20691;-57
2021/08/01 00:39:53;;;;;;;14.53;4.50;;;15.10;99.90;;;;;;5020712;28;20190;-58
2021/08/01 00:42:19;;;;;;;7.20;3.70;;;15.10;99.90;;;;;;5024136;28;20281;-56
2021/08/01 00:44:45;;;;;;;6.30;4.50;;;15.10;99.90;;;;;;5027594;28;20746;-56
2021/08/01 00:47:12;;;;;;;5.33;3.80;;;15.10;99.90;;;;;;5029433;28;20454;-56
2021/08/01 00:49:38;;;;;;;7.40;3.93;;;15.00;99.90;;;;;;5031778;28;20442;-56
2021/08/01 00:52:07;;;;;;;4.60;3.87;;;15.00;99.90;;;;;;5029479;28;20458;-57
2021/08/01 00:54:34;;;;;;;8.27;4.17;;;15.00;99.90;;;;;;5030749;28;20406;-56
2021/08/01 00:57:04;;;;;;;7.03;4.00;;;15.00;99.90;;;;;;5027388;28;20459;-57
2021/08/01 00:59:40;;;;;;;4.87;3.60;;;14.90;99.90;;;;;;5027576;28;20787;-57
2021/08/01 01:02:15;;;;;;;11.77;4.00;;;14.90;99.90;;;;;;5031081;28;20541;-56
2021/08/01 01:04:52;;;;;;;7.50;3.90;;;14.90;99.90;;;;;;5028448;28;20437;-56
2021/08/01 01:07:33;;;;;;;5.70;3.90;;;14.90;99.90;;;;;;5031938;28;20496;-57
2021/08/01 01:10:06;;;;;;;5.00;3.67;;;14.80;99.90;;;;;;5040103;28;20429;-57
2021/08/01 01:12:37;;;;;;;8.53;3.87;;;14.80;99.90;;;;;;5030201;28;20446;-56
2021/08/01 01:15:11;;;;;;;4.30;3.57;;;14.80;99.90;;;;;;5044966;28;20799;-56
2021/08/01 01:17:39;;;;;;;7.43;3.60;;;14.70;99.90;;;;;;5026577;28;20796;-56
2021/08/01 01:20:18;;;;;;;5.27;3.13;;;14.70;99.90;;;;;;5029965;28;20505;-56
2021/08/01 01:23:03;;;;;;;12.93;3.53;;;14.70;99.90;;;;;;5024890;28;20497;-56
2021/08/01 01:25:47;;;;;;;9.07;3.43;;;14.60;99.90;;;;;;5020696;28;20545;-57
2021/08/01 01:28:22;;;;;;;6.20;3.30;;;14.60;99.90;;;;;;5029926;28;20573;-56
2021/08/01 01:31:16;;;;;;;6.43;3.40;;;14.60;99.90;;;;;;5028855;28;20490;-56
2021/08/01 01:34:13;;;;;;;3.80;3.27;;;14.60;99.90;;;;;;5018280;28;20842;-55
2021/08/01 01:36:43;;;;;;;6.73;3.33;;;14.60;99.90;;;;;;5019726;28;20477;-57
2021/08/01 01:39:10;;;;;;;3.77;3.47;;;14.60;99.90;;;;;;5026034;28;20461;-58
2021/08/01 01:41:37;;;;;;;4.60;3.70;;;14.60;99.90;;;;;;5031086;28;20458;-56
2021/08/01 01:44:06;;;;;;;3.73;3.30;;;14.60;99.90;;;;;;5030716;28;20427;-55
2021/08/01 01:46:33;;;;;;;4.17;3.77;;;14.60;99.90;;;;;;5021085;28;20429;-56
2021/08/01 01:48:59;;;;;;;4.77;3.60;;;14.60;99.90;;;;;;5023638;28;20481;-58
2021/08/01 01:51:25;;;;;;;5.77;3.60;;;14.50;99.90;;;;;;5030397;28;20470;-57
2021/08/01 01:53:52;;;;;;;8.53;3.20;;;14.50;99.90;;;;;;5029631;28;20434;-55
2021/08/01 01:56:18;;;;;;;4.43;3.40;;;14.50;99.90;;;;;;5031358;28;20407;-55
2021/08/01 01:58:44;;;;;;;4.80;3.00;;;14.40;99.90;;;;;;5020910;28;20439;-57
2021/08/01 02:01:11;;;;;;;11.60;3.60;;;14.50;99.90;;;;;;5028623;28;20485;-54
2021/08/01 02:03:37;;;;;;;4.30;3.10;;;14.30;99.90;;;;;;5030360;28;20372;-56
2021/08/01 02:06:03;;;;;;;4.37;3.77;;;14.30;99.90;;;;;;5029913;28;20434;-55
2021/08/01 02:08:35;;;;;;;5.73;3.10;;;14.30;99.90;;;;;;5029371;28;20215;-56
2021/08/01 02:11:05;;;;;;;4.70;3.60;;;14.30;99.90;;;;;;5023895;28;20197;-56
2021/08/01 02:13:38;;;;;;;5.40;3.53;;;14.20;99.90;;;;;;5024114;28;20427;-57
2021/08/01 02:16:05;;;;;;;5.90;3.73;;;14.30;99.90;;;;;;5029057;28;20426;-59
2021/08/01 02:18:36;;;;;;;7.40;3.33;;;14.20;99.90;;;;;;5030244;28;20818;-57
2021/08/01 02:21:02;;;;;;;4.90;3.47;;;14.20;99.90;;;;;;5027588;28;20474;-55
2021/08/01 02:23:35;;;;;;;3.07;2.80;;;14.20;99.90;;;;;;5023127;28;20462;-56
2021/08/01 02:26:01;;;;;;;7.33;3.30;;;14.20;99.90;;;;;;5025784;28;20743;-58
2021/08/01 02:28:29;;;;;;;8.23;3.93;;;14.20;99.90;;;;;;5025958;28;20454;-55
2021/08/01 02:30:56;;;;;;;3.50;3.20;;;14.20;99.90;;;;;;5028113;28;20454;-55
2021/08/01 02:33:26;;;;;;;3.03;2.70;;;14.20;99.90;;;;;;5024507;28;20832;-56
2021/08/01 02:35:59;;;;;;;3.97;3.40;;;14.20;99.90;;;;;;5028852;28;20435;-55
2021/08/01 02:38:27;;;;;;;5.43;3.20;;;14.20;99.90;;;;;;5020617;28;20477;-54
2021/08/01 02:40:54;;;;;;;4.40;3.73;;;14.20;99.90;;;;;;5029134;28;20462;-55
2021/08/01 02:45:48;;;;;;;5.80;3.93;;;14.20;99.90;;;;;;4987137;28;20460;-57
2021/08/01 02:48:16;;;;;;;5.50;3.33;;;14.20;99.90;;;;;;4972156;28;20475;-57
2021/08/01 02:50:50;;;;;;;7.23;3.50;;;14.20;99.90;;;;;;4990176;28;20451;-54
2021/08/01 02:53:18;;;;;;;3.90;3.50;;;14.20;99.90;;;;;;4989097;28;20444;-56
2021/08/01 02:55:49;;;;;;;4.07;3.40;;;14.20;99.90;;;;;;4994111;28;20462;-56
2021/08/01 02:58:17;;;;;;;6.83;3.80;;;14.20;99.90;;;;;;4973595;28;20463;-55
2021/08/01 03:00:46;;;;;;;5.60;3.30;;;14.20;99.90;;;;;;4986133;28;20440;-56
2021/08/01 03:03:16;;;;;;;8.13;3.70;;;14.20;99.90;;;;;;4990093;28;20979;-55
2021/08/01 03:05:43;;;;;;;4.63;3.47;;;14.10;99.90;;;;;;4992545;28;20682;-55
2021/08/01 03:08:13;;;;;;;5.70;3.70;;;14.20;99.90;;;;;;4997706;28;20960;-56
2021/08/01 03:10:42;;;;;;;5.23;3.73;;;14.20;99.90;;;;;;4992169;28;20492;-55
2021/08/01 03:13:08;;;;;;;5.00;3.43;;;14.20;99.90;;;;;;4998429;28;20606;-56
2021/08/01 03:15:34;;;;;;;11.50;4.40;;;14.20;99.90;;;;;;4986766;28;20432;-55
2021/08/01 03:18:00;;;;;;;9.93;4.27;;;14.20;99.90;;;;;;4975374;28;20975;-56
2021/08/01 03:20:25;;;;;;;5.53;4.10;;;14.20;99.90;;;;;;4991602;28;20182;-56
2021/08/01 03:22:51;;;;;;;7.83;3.80;;;14.20;99.90;;;;;;5001839;28;20214;-56
2021/08/01 03:25:17;;;;;;;9.63;3.90;;;14.20;99.90;;;;;;4990265;28;20701;-55
2021/08/01 03:27:42;;;;;;;5.43;4.30;;;14.20;99.90;;;;;;4987815;28;20207;-56
2021/08/01 03:30:09;;;;;;;4.63;4.23;;;14.10;99.90;;;;;;5002991;28;20228;-56
2021/08/01 03:32:34;;;;;;;8.20;4.53;;;14.10;99.90;;;;;;4989663;28;20700;-55
2021/08/01 03:35:00;;;;;;;8.13;4.13;;;14.10;99.90;;;;;;4997611;28;20435;-56
2021/08/01 03:37:27;;;;;;;7.20;4.40;;;14.10;99.90;;;;;;4990783;28;20196;-57
2021/08/01 03:39:53;;;;;;;5.53;3.97;;;14.10;99.90;;;;;;4990355;28;20184;-56
2021/08/01 03:42:19;;;;;;;7.20;3.90;;;14.20;99.90;;;;;;4990514;28;20443;-54
2021/08/01 03:44:44;;;;;;;4.80;4.40;;;14.20;99.90;;;;;;4987887;28;20443;-56
2021/08/01 03:47:10;;;;;;;6.23;4.33;;;14.20;99.90;;;;;;4993813;28;20247;-57
2021/08/01 03:49:36;;;;;;;5.00;4.20;;;14.20;99.90;;;;;;4977210;28;20181;-55
2021/08/01 03:52:02;;;;;;;5.90;4.60;;;14.20;99.90;;;;;;4989635;28;20232;-56
2021/08/01 03:54:27;;;;;;;5.93;4.47;;;14.20;99.90;;;;;;4981531;28;20178;-55
2021/08/01 03:56:54;;;;;;;7.17;4.57;;;14.20;99.90;;;;;;4971015;28;20194;-54
2021/08/01 03:59:20;;;;;;;5.50;4.17;;;14.20;99.90;;;;;;4985184;28;20177;-56
2021/08/01 04:01:45;;;;;;;8.03;4.90;;;14.20;99.90;;;;;;4986300;28;20456;-55
2021/08/01 04:04:11;;;;;;;4.63;3.77;;;14.20;99.90;;;;;;4989247;28;20181;-54
2021/08/01 04:06:37;;;;;;;5.83;3.90;;;14.20;99.90;;;;;;4990558;28;20212;-55
2021/08/01 04:09:06;;;;;;;4.13;3.67;;;14.20;99.90;;;;;;4983530;28;20268;-56
2021/08/01 04:11:33;;;;;;;7.93;4.30;;;14.10;99.90;;;;;;4969872;28;20606;-54
2021/08/01 04:13:59;;;;;;;5.30;4.20;;;14.10;99.90;;;;;;4973723;28;20424;-55
2021/08/01 04:16:25;;;;;;;8.33;4.27;;;14.10;99.90;;;;;;4989078;28;20421;-55
2021/08/01 04:18:50;;;;;;;5.67;4.20;;;14.10;99.90;;;;;;4989106;28;20435;-54
2021/08/01 04:21:16;;;;;;;5.17;4.60;;;14.10;99.90;;;;;;4996671;28;20429;-55
2021/08/01 04:23:42;;;;;;;9.30;4.40;;;14.10;99.90;;;;;;4988061;28;20208;-55
2021/08/01 04:26:08;;;;;;;6.90;4.00;;;14.10;99.90;;;;;;4970147;28;20201;-56
2021/08/01 04:28:35;;;;;;;6.17;4.47;;;14.10;99.90;;;;;;4968994;28;20235;-54
2021/08/01 04:31:01;;;;;;;5.40;4.53;;;14.20;99.90;;;;;;4985631;28;20459;-55
2021/08/01 04:33:27;;;;;;;5.80;4.13;;;14.20;99.90;;;;;;4972570;28;20494;-56
2021/08/01 04:35:53;;;;;;;7.13;4.27;;;14.20;99.90;;;;;;4971001;28;20794;-55
2021/08/01 04:38:19;;;;;;;5.13;4.50;;;14.20;99.90;;;;;;4988184;28;20427;-55
2021/08/01 04:40:45;;;;;;;4.90;4.40;;;14.20;99.90;;;;;;4992601;28;21735;-55
2021/08/01 04:43:11;;;;;;;6.80;4.13;;;14.20;99.90;;;;;;4993868;28;20264;-55
2021/08/01 04:45:37;;;;;;;5.50;4.20;;;14.20;99.90;;;;;;4991506;28;20192;-53
2021/08/01 04:48:04;;;;;;;9.70;4.90;;;14.20;99.90;;;;;;4985733;28;20459;-54
2021/08/01 04:50:29;;;;;;;4.90;3.80;;;14.20;99.90;;;;;;4978133;28;20714;-54
2021/08/01 04:52:55;;;;;;;5.47;4.17;;;14.30;99.90;;;;;;4970934;28;20451;-54
2021/08/01 04:55:21;;;;;;;5.63;4.30;;;14.30;99.90;;;;;;4987233;28;20178;-55
2021/08/01 04:57:47;;;;;;;8.23;4.83;;;14.30;99.90;;;;;;4988256;28;20177;-55
2021/08/01 05:00:13;;;;;;;3.80;3.40;;;14.30;99.90;;;;;;4986026;28;20185;-58
2021/08/01 05:02:39;;;;;;;4.83;4.13;;;14.30;99.90;;;;;;4990248;28;20483;-55
2021/08/01 05:05:05;;;;;;;7.00;4.20;;;14.30;99.90;;;;;;4978763;28;20486;-56
2021/08/01 05:07:31;;;;;;;7.30;4.27;;;14.30;99.90;;;;;;4984661;28;20993;-57
2021/08/01 05:09:58;;;;;;;6.27;4.40;;;14.30;99.90;;;;;;4986305;28;20458;-58
2021/08/01 05:12:23;;;;;;;5.50;4.43;;;14.30;99.90;;;;;;4962921;28;20704;-57
2021/08/01 05:14:49;;;;;;;8.80;5.20;;;14.30;99.90;;;;;;4965063;28;20436;-57
2021/08/01 05:17:15;;;;;;;11.73;4.73;;;14.30;99.90;;;;;;4983306;28;20185;-56
2021/08/01 05:19:41;;;;;;;4.90;3.83;;;14.30;99.90;;;;;;4979646;28;20195;-57
2021/08/01 05:22:11;;;;;;;8.53;5.10;;;14.30;99.90;;;;;;4981510;28;20283;-57
2021/08/01 05:24:41;;;;;;;5.80;4.40;;;14.30;99.90;;;;;;4979705;28;20448;-58
2021/08/01 05:27:07;;;;;;;5.33;4.13;;;14.30;99.90;;;;;;4980620;28;20460;-58
2021/08/01 05:29:33;;;;;;;5.57;3.80;;;14.30;99.90;;;;;;4982523;28;20952;-59
2021/08/01 05:31:59;;;;;;;6.97;5.03;;;14.30;99.90;;;;;;4980330;28;20460;-60
2021/08/01 05:34:24;;;;;;;6.23;4.53;;;14.40;99.90;;;;;;4981669;28;20474;-58
2021/08/01 05:36:51;;;;;;;8.40;4.67;;;14.40;99.90;;;;;;4987520;28;20313;-57
2021/08/01 05:39:17;;;;;;;7.30;5.00;;;14.40;99.90;;;;;;4982505;28;20174;-57
2021/08/01 05:41:43;;;;;;;6.10;4.57;;;14.40;99.90;;;;;;4985256;28;20447;-58
2021/08/01 05:44:08;;;;;;;6.20;4.80;;;14.40;99.90;;;;;;4985072;28;20441;-55
2021/08/01 05:46:34;;;;;;;5.77;4.87;;;14.40;99.90;;;;;;4984624;28;20424;-55
2021/08/01 05:48:59;;;;;;;8.80;4.73;;;14.40;99.90;;;;;;4981463;28;20260;-58
2021/08/01 05:51:25;;;;;;;4.60;4.20;;;14.40;99.90;;;;;;4989481;28;20177;-59
2021/08/01 05:53:51;;;;;;;8.03;4.80;;;14.50;99.90;;;;;;4993166;28;20620;-58
2021/08/01 05:56:16;;;;;;;6.30;4.20;;;14.40;99.90;;;;;;4985875;28;20176;-58
2021/08/01 05:58:42;;;;;;;5.97;5.23;;;14.40;99.90;;;;;;4995248;28;20181;-58
2021/08/01 06:01:16;;;;;;;7.60;6.03;;;14.50;99.90;;;;;;4973535;28;20633;-61
2021/08/01 06:03:43;;;;;;;6.00;5.40;;;14.50;99.90;;;;;;4988966;28;20201;-59
2021/08/01 06:06:17;;;;;;;9.73;5.40;;;14.50;99.90;;;;;;4989046;28;20419;-57
2021/08/01 06:08:46;;;;;;;8.20;5.47;;;14.50;99.90;;;;;;4996217;28;20465;-58
2021/08/01 06:11:12;;;;;;;6.63;4.57;;;14.60;99.90;;;;;;4985165;28;20428;-58
2021/08/01 06:13:39;;;;;;;7.67;5.17;;;14.60;99.90;;;;;;4982820;28;20980;-59
2021/08/01 06:16:12;;;;;;;7.47;5.57;;;14.70;99.90;;;;;;4986092;28;20438;-58
2021/08/01 06:18:38;;;;;;;6.67;5.53;;;14.70;99.90;;;;;;4985912;28;20519;-59
2021/08/01 06:21:07;;;;;;;8.47;5.13;;;14.70;99.90;;;;;;4999873;28;20448;-60
2021/08/01 06:23:35;;;;;;;9.27;5.77;;;14.80;99.90;;;;;;5007781;28;20961;-59
2021/08/01 06:26:01;;;;;;;9.13;5.80;;;14.80;99.90;;;;;;4999198;28;20703;-58
2021/08/01 06:28:26;;;;;;;7.37;4.93;;;14.90;99.90;;;;;;4998616;28;20979;-57
2021/08/01 06:30:52;;;;;;;5.27;4.77;;;14.90;99.90;;;;;;4985691;28;20192;-56
2021/08/01 06:33:18;;;;;;;8.20;4.93;;;14.90;99.90;;;;;;4989174;28;20197;-56
2021/08/01 06:35:44;;;;;;;6.00;4.93;;;14.90;99.90;;;;;;4991293;28;20435;-54
2021/08/01 06:38:10;;;;;;;7.60;4.97;;;15.00;99.90;;;;;;4988403;28;20197;-55
2021/08/01 06:40:36;;;;;;;8.23;5.13;;;14.90;99.90;;;;;;4989396;28;20661;-53
2021/08/01 06:43:01;;;;;;;8.57;5.47;;;14.90;99.90;;;;;;4991033;28;20484;-53
2021/08/01 06:45:27;;;;;;;6.80;5.30;;;14.90;99.90;;;;;;4990056;28;20200;-56
2021/08/01 06:47:52;;;;;;;7.67;6.70;;;14.90;99.90;;;;;;4985185;28;20213;-55
2021/08/01 06:50:20;;;;;;;7.70;5.27;;;14.90;99.90;;;;;;5003465;28;20430;-53
2021/08/01 06:52:46;;;;;;;9.20;6.10;;;14.90;99.90;;;;;;4985098;28;20666;-54
2021/08/01 06:55:12;;;;;;;7.30;5.67;;;14.90;99.90;;;;;;4989658;28;20427;-55
2021/08/01 06:57:38;;;;;;;9.63;5.87;;;14.90;99.90;;;;;;4978282;28;20445;-55
2021/08/01 07:00:05;;;;;;;8.90;5.60;;;15.00;99.90;;;;;;4991262;28;20455;-57
2021/08/01 07:02:31;;;;;;;6.60;5.77;;;15.10;99.90;;;;;;4973030;28;20225;-55
2021/08/01 07:04:57;;;;;;;5.73;5.17;;;15.10;99.90;;;;;;4988286;28;20476;-55
2021/08/01 07:07:23;;;;;;;8.33;5.80;;;15.10;99.90;;;;;;4990862;28;20776;-52
2021/08/01 07:09:49;;;;;;;8.43;6.07;;;15.10;99.90;;;;;;4988581;28;20455;-56
2021/08/01 07:12:16;;;;;;;7.57;4.93;;;15.10;99.90;;;;;;4989857;28;20242;-53
2021/08/01 07:14:42;;;;;;;9.63;5.60;;;15.10;99.90;;;;;;4976815;28;20200;-57
2021/08/01 07:17:08;;;;;;;9.80;5.90;;;15.10;99.90;;;;;;4986798;28;20423;-57
2021/08/01 07:19:34;;;;;;;10.20;5.33;;;15.20;99.90;;;;;;4991455;28;20492;-55
2021/08/01 07:21:59;;;;;;;5.50;4.60;;;15.20;99.90;;;;;;4984167;28;20198;-54
2021/08/01 07:24:25;;;;;;;6.50;4.93;;;15.20;99.90;;;;;;4989810;28;20649;-56
2021/08/01 07:26:52;;;;;;;5.57;4.43;;;15.20;99.90;;;;;;5000581;28;20180;-56
2021/08/01 07:29:18;;;;;;;5.70;4.97;;;15.10;99.90;;;;;;4991325;28;20209;-53
2021/08/01 07:31:44;;;;;;;9.17;4.90;;;15.20;99.90;;;;;;4971477;28;20433;-55
2021/08/01 07:34:10;;;;;;;7.00;4.80;;;15.20;99.90;;;;;;4970270;28;20166;-59
2021/08/01 07:36:35;;;;;;;10.23;4.40;;;15.20;99.90;;;;;;4988291;28;20165;-56
2021/08/01 07:39:01;;;;;;;7.10;4.73;;;15.20;99.90;;;;;;4984806;28;20662;-58
2021/08/01 07:41:27;;;;;;;5.60;4.53;;;15.20;99.90;;;;;;4990820;28;20189;-52
2021/08/01 07:43:52;;;;;;;5.50;4.83;;;15.20;99.90;;;;;;5004392;28;20436;-54
2021/08/01 07:46:19;;;;;;;7.90;4.87;;;15.20;99.90;;;;;;4990797;28;20189;-56
2021/08/01 07:48:45;;;;;;;8.30;5.00;;;15.20;99.90;;;;;;4985954;28;20201;-55
2021/08/01 07:51:11;;;;;;;4.40;4.00;;;15.20;99.90;;;;;;4989980;28;20769;-56
2021/08/01 07:53:37;;;;;;;5.07;4.57;;;15.20;99.90;;;;;;4983986;28;20523;-55
2021/08/01 07:56:02;;;;;;;9.00;4.77;;;15.10;99.90;;;;;;4981567;28;20396;-54
2021/08/01 07:58:30;;;;;;;12.00;5.10;;;15.10;99.90;;;;;;4989307;28;20283;-56
2021/08/01 08:00:55;;;;;;;6.77;4.40;;;15.10;99.90;;;;;;4976564;28;20231;-53
2021/08/01 08:03:21;;;;;;;9.17;5.40;;;15.20;99.90;;;;;;4986787;28;20472;-55
2021/08/01 08:05:47;;;;;;;8.83;5.00;;;15.20;99.90;;;;;;4990147;28;20184;-56
2021/08/01 08:08:13;;;;;;;7.13;5.10;;;15.30;99.90;;;;;;4989559;28;20235;-55
2021/08/01 08:10:38;;;;;;;5.50;4.40;;;15.30;99.90;;;;;;4971737;28;20181;-55
2021/08/01 08:13:04;;;;;;;5.47;4.53;;;15.20;99.90;;;;;;4982091;28;20224;-53
2021/08/01 08:15:29;;;;;;;5.57;4.30;;;15.20;99.90;;;;;;4971358;28;20181;-53
2021/08/01 08:17:55;;;;;;;5.37;4.63;;;15.20;99.90;;;;;;4986899;28;20242;-55
2021/08/01 08:20:21;;;;;;;6.67;4.43;;;15.20;99.90;;;;;;4980186;28;20181;-57
2021/08/01 08:22:46;;;;;;;7.83;5.20;;;15.20;99.90;;;;;;4987821;28;20219;-54
2021/08/01 08:25:12;;;;;;;7.97;5.53;;;15.20;99.90;;;;;;4989876;28;20173;-54
2021/08/01 08:27:38;;;;;;;6.87;4.83;;;15.20;99.90;;;;;;4973106;28;20217;-53
2021/08/01 08:30:06;;;;;;;9.10;5.37;;;15.10;99.90;;;;;;4982888;28;20545;-53
2021/08/01 08:32:33;;;;;;;5.03;4.53;;;15.10;99.90;;;;;;4981782;28;20193;-53
2021/08/01 08:34:59;;;;;;;5.27;4.77;;;15.10;99.90;;;;;;4988485;28;20971;-53
2021/08/01 08:37:25;;;;;;;7.60;5.47;;;15.10;99.90;;;;;;4989092;28;20483;-53
2021/08/01 08:39:51;;;;;;;12.23;7.97;;;15.10;99.90;;;;;;4973898;28;20433;-53
2021/08/01 08:42:17;;;;;;;8.03;5.33;;;15.10;99.90;;;;;;5003753;23;20489;-55
2021/08/01 08:44:43;;;;;;;6.90;4.43;;;15.10;99.90;;;;;;5026286;28;20221;-54
2021/08/01 08:47:09;;;;;;;10.00;4.70;;;15.10;99.90;;;;;;5010129;28;20286;-53
2021/08/01 08:49:39;;;;;;;7.10;4.97;;;15.10;99.90;;;;;;5024442;28;20742;-55
2021/08/01 08:52:07;;;;;;;5.70;4.70;;;15.10;99.90;;;;;;5022955;28;20539;-54
2021/08/01 08:54:43;;;;;;;8.27;5.07;;;15.10;99.90;;;;;;5004625;28;20805;-55
2021/08/01 08:57:36;;;;;;;6.27;5.10;;;15.10;99.90;;;;;;5005156;28;20786;-55
2021/08/01 09:00:10;;;;;;;6.90;4.37;;;15.20;99.90;;;;;;5004999;28;20510;-54
2021/08/01 09:02:36;;;;;;;6.40;4.60;;;15.20;99.90;;;;;;5006424;28;20968;-55
2021/08/01 09:05:04;;;;;;;7.37;4.67;;;15.20;99.90;;;;;;5006080;28;20415;-55
2021/08/01 09:07:30;;;;;;;6.93;4.53;;;15.20;99.90;;;;;;5005379;28;20454;-55
2021/08/01 09:09:56;;;;;;;6.07;4.27;;;15.20;99.90;;;;;;5008425;28;20431;-55
2021/08/01 09:12:22;;;;;;;4.20;3.60;;;15.20;99.90;;;;;;5017240;28;20695;-55
2021/08/01 09:14:47;;;;;;;9.70;3.90;;;15.20;99.90;;;;;;5014573;28;20179;-56
2021/08/01 09:17:34;;;;;;;6.33;4.47;;;15.20;99.90;;;;;;5010767;28;20207;-56
2021/08/01 09:20:34;;;;;;;4.30;3.87;;;15.20;99.90;;;;;;5009960;28;20267;-55
2021/08/01 09:23:06;;;;;;;4.50;3.80;;;15.20;99.90;;;;;;5002483;28;20455;-56
2021/08/01 09:25:35;;;;;;;4.40;4.00;;;15.30;99.90;;;;;;4994413;28;20581;-56
2021/08/01 09:28:10;;;;;;;4.80;3.83;;;15.30;99.90;;;;;;5007328;28;20721;-56
2021/08/01 09:30:53;;;;;;;5.80;3.73;;;15.30;99.90;;;;;;4992551;28;20407;-57
2021/08/01 09:33:40;;;;;;;4.60;3.60;;;15.30;99.90;;;;;;5009123;28;20435;-55
2021/08/01 09:36:20;;;;;;;4.53;3.47;;;15.40;99.90;;;;;;5001193;28;20427;-56
2021/08/01 09:38:49;;;;;;;4.80;3.90;;;15.30;99.90;;;;;;5009536;28;20497;-56
2021/08/01 09:41:24;;;;;;;4.97;3.40;;;15.40;99.90;;;;;;5010433;28;20788;-56
2021/08/01 09:43:54;;;;;;;5.40;3.37;;;15.40;99.90;;;;;;5008317;28;20944;-56
2021/08/01 09:46:21;;;;;;;10.93;3.90;;;15.40;99.90;;;;;;5009858;28;20423;-55
2021/08/01 09:49:07;;;;;;;6.43;4.20;;;15.50;99.90;;;;;;5005828;28;20502;-55
2021/08/01 09:51:41;;;;;;;4.13;3.50;;;15.50;99.90;;;;;;5008588;28;20439;-56
2021/08/01 09:54:07;;;;;;;8.13;4.37;;;15.60;99.90;;;;;;5009573;28;20446;-56
2021/08/01 09:56:33;;;;;;;4.00;3.37;;;15.70;99.90;;;;;;5009343;28;20435;-56
2021/08/01 09:59:00;;;;;;;3.50;3.20;;;15.80;99.90;;;;;;5007921;28;20966;-55
2021/08/01 10:01:26;;;;;;;3.83;3.10;;;15.90;99.90;;;;;;5015548;28;20179;-55
2021/08/01 10:03:51;;;;;;;5.53;3.27;;;15.90;99.90;;;;;;5009036;28;20428;-54
2021/08/01 10:06:20;;;;;;;3.63;3.23;;;16.00;99.90;;;;;;5010018;28;20997;-57
2021/08/01 10:08:48;;;;;;;4.03;3.13;;;16.10;99.90;;;;;;5003369;28;20610;-54
2021/08/01 10:11:24;;;;;;;4.23;3.00;;;16.10;99.90;;;;;;5007749;28;20438;-51
2021/08/01 10:13:54;;;;;;;5.20;3.20;;;16.20;99.90;;;;;;4991007;28;20470;-54
2021/08/01 10:16:21;;;;;;;4.53;3.07;;;16.10;99.90;;;;;;5007884;28;20431;-53
2021/08/01 10:18:48;;;;;;;7.13;2.60;;;16.10;99.90;;;;;;5004368;28;20723;-54
2021/08/01 10:21:20;;;;;;;5.87;2.60;;;16.10;99.90;;;;;;4983868;28;20755;-54
2021/08/01 10:23:56;;;;;;;2.17;1.97;;;16.10;99.90;;;;;;5007873;28;20470;-54
2021/08/01 10:26:26;;;;;;;3.30;2.50;;;16.10;99.90;;;;;;4985011;28;20521;-52
2021/08/01 10:28:57;;;;;;;2.53;2.30;;;16.00;99.90;;;;;;5009468;28;20451;-56
2021/08/01 10:32:04;;;;;;;3.70;2.93;;;16.00;99.90;;;;;;5008532;28;20420;-51
2021/08/01 10:34:42;;;;;;;2.90;2.67;;;16.00;99.90;;;;;;5002009;28;20435;-55
2021/08/01 10:37:14;;;;;;;3.30;2.67;;;16.10;99.90;;;;;;5001830;28;20486;-54
2021/08/01 10:39:43;;;;;;;4.50;2.63;;;16.00;99.90;;;;;;5009501;28;20429;-54
2021/08/01 10:42:12;;;;;;;3.40;2.50;;;16.00;99.90;;;;;;5001363;28;20572;-55
2021/08/01 10:44:38;;;;;;;3.07;2.77;;;16.00;99.90;;;;;;4989516;28;20426;-53
2021/08/01 10:47:09;;;;;;;3.53;3.03;;;16.00;99.90;;;;;;4989896;28;20408;-54
2021/08/01 10:49:54;;;;;;;8.73;4.93;;;15.90;99.90;;;;;;5006497;28;20662;-54
2021/08/01 10:52:20;;;;;;;3.30;2.47;;;15.90;99.90;;;;;;5004709;28;20566;-54
2021/08/01 10:54:58;;;;;;;3.50;2.70;;;15.90;99.90;;;;;;5005532;28;20791;-54
2021/08/01 10:57:25;;;;;;;2.53;2.20;;;15.80;99.90;;;;;;5005239;28;20268;-55
2021/08/01 10:59:50;;;;;;;3.43;2.63;;;15.80;99.90;;;;;;4992393;28;20408;-54
2021/08/01 11:02:26;;;;;;;3.40;2.60;;;15.80;99.90;;;;;;5008476;28;20443;-54
2021/08/01 11:04:52;;;;;;;5.70;2.80;;;15.80;99.90;;;;;;5007832;28;20183;-54
2021/08/01 11:07:27;;;;;;;4.40;2.93;;;15.90;99.90;;;;;;4995198;28;20518;-54
2021/08/01 11:10:10;;;;;;;2.60;2.40;;;15.90;99.90;;;;;;5004531;28;20485;-54
2021/08/01 11:12:42;;;;;;;4.17;2.77;;;15.90;99.90;;;;;;5007789;28;20586;-56
2021/08/01 11:15:10;;;;;;;3.50;2.97;;;16.00;99.90;;;;;;5005662;28;20516;-56
2021/08/01 11:17:48;;;;;;;5.00;3.03;;;16.00;99.90;;;;;;5008891;28;20447;-55
2021/08/01 11:20:23;;;;;;;4.43;3.70;;;16.00;99.90;;;;;;5019669;28;20912;-54
2021/08/01 11:22:55;;;;;;;2.50;2.30;;;16.10;99.90;;;;;;4991656;28;20450;-56
2021/08/01 11:25:32;;;;;;;2.90;2.60;;;16.20;99.90;;;;;;5007227;28;20492;-54
2021/08/01 11:28:10;;;;;;;4.43;2.70;;;16.20;99.90;;;;;;5008441;28;20455;-55
2021/08/01 11:30:54;;;;;;;4.90;3.30;;;16.30;99.90;;;;;;5007354;28;20422;-55
2021/08/01 11:33:42;;;;;;;3.33;2.83;;;16.40;99.90;;;;;;4991641;28;20435;-55
2021/08/01 11:36:17;;;;;;;2.90;2.70;;;16.50;99.90;;;;;;5003496;28;20412;-55
2021/08/01 11:38:48;;;;;;;3.10;2.80;;;16.60;99.90;;;;;;5003103;28;20431;-56
2021/08/01 11:41:30;;;;;;;3.20;2.80;;;16.70;99.90;;;;;;5008946;28;20517;-55
2021/08/01 11:44:01;;;;;;;3.40;2.77;;;16.80;99.90;;;;;;5006814;28;20442;-54
2021/08/01 11:46:55;;;;;;;3.20;2.40;;;16.90;99.90;;;;;;5006596;28;20427;-56
2021/08/01 11:49:43;;;;;;;2.60;2.40;;;17.10;99.90;;;;;;5000402;28;20951;-55
2021/08/01 11:52:10;;;;;;;2.30;2.03;;;17.20;99.90;;;;;;5005817;28;20783;-55
2021/08/01 11:54:43;;;;;;;2.47;2.27;;;17.30;99.90;;;;;;5006484;28;20420;-53
2021/08/01 11:57:11;;;;;;;3.63;2.43;;;17.40;99.90;;;;;;5009137;28;20427;-55
2021/08/01 11:59:38;;;;;;;2.70;2.50;;;17.40;99.90;;;;;;5008828;28;20418;-55
2021/08/01 12:02:11;;;;;;;2.73;2.53;;;17.50;99.90;;;;;;5027029;28;20502;-55
2021/08/01 12:04:38;;;;;;;2.57;2.37;;;17.40;99.90;;;;;;5021793;28;20936;-55
2021/08/01 12:07:08;;;;;;;3.33;2.20;;;17.50;99.90;;;;;;5006727;28;20403;-55
2021/08/01 12:09:38;;;;;;;2.80;2.37;;;17.50;99.90;;;;;;5007211;28;20483;-56
2021/08/01 12:12:05;;;;;;;2.80;2.50;;;17.50;99.90;;;;;;5007258;28;20400;-56
2021/08/01 12:14:40;;;;;;;3.63;2.53;;;17.40;99.90;;;;;;5000480;28;20454;-55
2021/08/01 12:17:09;;;;;;;3.13;2.30;;;17.50;99.90;;;;;;5004405;28;20430;-55
2021/08/01 12:19:47;;;;;;;2.27;2.17;;;17.60;99.90;;;;;;5005262;28;20439;-54
2021/08/01 12:22:14;;;;;;;2.87;2.33;;;17.60;99.90;;;;;;5005410;28;20435;-55
2021/08/01 12:24:51;;;;;;;2.80;2.20;;;17.50;99.90;;;;;;4992968;28;20428;-55
2021/08/01 12:27:24;;;;;;;3.50;1.90;;;17.50;99.80;;;;;;4994894;28;20826;-55
2021/08/01 12:29:53;;;;;;;2.27;2.07;;;17.40;99.80;;;;;;5006452;28;20420;-55
2021/08/01 12:32:24;;;;;;;2.87;2.47;;;17.40;99.40;;;;;;5004856;28;20506;-55
2021/08/01 12:34:59;;;;;;;3.07;2.17;;;17.60;99.90;;;;;;4988500;28;20412;-55
2021/08/01 12:37:26;;;;;;;3.00;2.17;;;17.80;99.90;;;;;;5006302;28;20520;-56
2021/08/01 12:39:52;;;;;;;1.97;1.87;;;18.10;99.90;;;;;;5006383;28;20423;-55
2021/08/01 12:42:19;;;;;;;2.77;2.40;;;18.10;93.60;;;;;;5001498;28;20204;-55
2021/08/01 12:44:54;;;;;;;3.27;2.03;;;18.40;96.90;;;;;;5006344;28;20521;-55
2021/08/01 12:47:20;;;;;;;1.97;1.87;;;18.80;95.20;;;;;;5006116;28;20463;-55
2021/08/01 12:49:46;;;;;;;2.03;1.83;;;19.00;93.90;;;;;;5000261;28;20516;-53
2021/08/01 12:52:24;;;;;;;2.37;1.70;;;19.00;92.70;;;;;;5002237;28;20585;-55
2021/08/01 12:54:51;;;;;;;2.47;2.10;;;18.90;94.30;;;;;;5018147;28;20497;-57
2021/08/01 12:57:16;;;;;;;2.53;1.80;;;18.80;95.80;;;;;;5026738;28;20791;-55